createdAt,value
2017-08-04T00:00:50.201Z,2.50
2017-08-04T00:03:17.707Z,2.43
2017-08-04T00:05:45.190Z,2.53
2017-08-04T00:08:12.659Z,3.00
2017-08-04T00:10:40.890Z,2.80
2017-08-04T00:13:08.366Z,2.77
2017-08-04T00:15:36.446Z,2.70
2017-08-04T00:18:04.060Z,2.87
2017-08-04T00:20:31.520Z,2.70
2017-08-04T00:22:58.995Z,2.67
2017-08-04T00:25:26.466Z,4.43
2017-08-04T00:27:53.983Z,2.80
2017-08-04T00:30:21.579Z,3.13
2017-08-04T00:32:49.056Z,2.73
2017-08-04T00:35:16.694Z,2.60
2017-08-04T00:37:44.721Z,3.80
2017-08-04T00:40:12.210Z,3.10
2017-08-04T00:42:39.877Z,2.90
2017-08-04T00:45:07.341Z,3.00
2017-08-04T00:47:34.820Z,2.40
2017-08-04T00:50:03.054Z,2.67
2017-08-04T00:52:30.666Z,2.90
2017-08-04T00:54:59.034Z,2.53
2017-08-04T00:57:27.270Z,2.90
2017-08-04T00:59:54.739Z,2.63
2017-08-04T01:02:22.220Z,3.10
2017-08-04T01:04:49.684Z,3.30
2017-08-04T01:07:17.937Z,3.07
2017-08-04T01:09:45.618Z,2.13
2017-08-04T01:12:13.066Z,2.50
2017-08-04T01:14:40.604Z,3.00
2017-08-04T01:17:08.063Z,2.13
2017-08-04T01:19:35.629Z,2.53
2017-08-04T01:22:03.105Z,2.90
2017-08-04T01:24:31.362Z,2.00
2017-08-04T01:26:58.833Z,2.70
2017-08-04T01:29:27.069Z,2.70
2017-08-04T01:31:55.358Z,3.03
2017-08-04T01:34:22.823Z,2.83
2017-08-04T01:36:50.449Z,2.83
2017-08-04T01:39:17.942Z,2.87
2017-08-04T01:41:45.410Z,2.60
2017-08-04T01:44:13.634Z,3.17
2017-08-04T01:46:41.124Z,2.70
2017-08-04T01:49:08.757Z,3.00
2017-08-04T01:51:36.309Z,3.13
2017-08-04T01:54:03.782Z,3.23
2017-08-04T01:56:31.249Z,3.07
2017-08-04T01:58:58.784Z,3.67
2017-08-04T02:01:26.251Z,2.67
2017-08-04T02:03:53.752Z,2.63
2017-08-04T02:06:21.214Z,3.10
2017-08-04T02:08:49.458Z,2.90
2017-08-04T02:11:16.933Z,2.90
2017-08-04T02:13:45.167Z,2.77
2017-08-04T02:16:12.638Z,2.53
2017-08-04T02:18:40.126Z,2.50
2017-08-04T02:21:08.385Z,2.77
2017-08-04T02:23:35.855Z,2.60
2017-08-04T02:26:04.102Z,2.90
2017-08-04T02:28:31.577Z,2.77
2017-08-04T02:30:59.047Z,2.97
2017-08-04T02:33:27.325Z,2.50
2017-08-04T02:35:55.621Z,3.20
2017-08-04T02:38:23.092Z,2.47
2017-08-04T02:40:50.747Z,2.27
2017-08-04T02:43:18.226Z,2.77
2017-08-04T02:45:45.731Z,2.70
2017-08-04T02:48:14.078Z,2.07
2017-08-04T02:50:41.556Z,2.93
2017-08-04T02:53:09.028Z,2.50
2017-08-04T02:55:37.283Z,2.10
2017-08-04T02:58:04.753Z,2.50
2017-08-04T03:00:33.004Z,2.90
2017-08-04T03:03:00.467Z,2.40
2017-08-04T03:05:27.965Z,2.80
2017-08-04T03:07:55.439Z,2.90
2017-08-04T03:10:22.960Z,2.80
2017-08-04T03:12:51.206Z,3.80
2017-08-04T03:15:18.662Z,2.90
2017-08-04T03:17:46.153Z,3.80
2017-08-04T03:20:14.386Z,2.30
2017-08-04T03:22:41.924Z,2.90
2017-08-04T03:25:09.378Z,2.37
2017-08-04T03:27:36.853Z,2.57
2017-08-04T03:30:04.349Z,2.37
2017-08-04T03:32:32.690Z,2.37
2017-08-04T03:35:00.149Z,2.57
2017-08-04T03:37:27.680Z,2.57
2017-08-04T03:39:55.137Z,2.40
2017-08-04T03:42:22.700Z,2.30
2017-08-04T03:44:50.177Z,3.10
2017-08-04T03:47:17.661Z,3.20
2017-08-04T03:49:45.139Z,2.30
2017-08-04T03:52:13.386Z,2.47
2017-08-04T03:54:40.868Z,2.87
2017-08-04T03:57:09.174Z,2.80
2017-08-04T03:59:36.638Z,2.97
2017-08-04T04:02:04.098Z,2.53
2017-08-04T04:04:31.841Z,2.40
2017-08-04T04:06:59.319Z,2.77
2017-08-04T04:09:26.802Z,2.07
2017-08-04T04:11:54.286Z,2.90
2017-08-04T04:14:22.526Z,2.27
2017-08-04T04:16:49.997Z,2.50
2017-08-04T04:19:17.650Z,3.00
2017-08-04T04:21:45.227Z,2.33
2017-08-04T04:24:12.693Z,2.40
2017-08-04T04:26:40.917Z,2.17
2017-08-04T04:29:08.394Z,2.63
2017-08-04T04:31:36.075Z,2.93
2017-08-04T04:34:03.551Z,3.00
2017-08-04T04:36:31.786Z,2.20
2017-08-04T04:38:59.277Z,2.30
2017-08-04T04:41:27.577Z,2.60
2017-08-04T04:43:55.215Z,3.10
2017-08-04T04:46:23.574Z,2.50
2017-08-04T04:48:51.044Z,2.50
2017-08-04T04:51:19.317Z,3.17
2017-08-04T04:53:47.635Z,2.43
2017-08-04T04:56:15.198Z,2.67
2017-08-04T04:58:42.659Z,2.37
2017-08-04T05:01:10.592Z,3.60
2017-08-04T05:03:38.077Z,2.73
2017-08-04T05:06:05.588Z,2.87
2017-08-04T05:08:33.878Z,2.80
2017-08-04T05:11:02.733Z,3.47
2017-08-04T05:13:30.341Z,2.87
2017-08-04T05:15:57.813Z,2.80
2017-08-04T05:18:25.281Z,2.50
2017-08-04T05:20:52.846Z,2.60
2017-08-04T05:23:20.392Z,2.47
2017-08-04T05:25:47.853Z,2.70
2017-08-04T05:28:15.334Z,2.53
2017-08-04T05:30:43.653Z,2.30
2017-08-04T05:33:11.954Z,2.47
2017-08-04T05:35:40.031Z,2.43
2017-08-04T05:38:07.537Z,2.13
2017-08-04T05:40:35.086Z,2.17
2017-08-04T05:43:02.561Z,2.50
2017-08-04T05:45:30.780Z,2.30
2017-08-04T05:47:58.251Z,2.30
2017-08-04T05:50:26.610Z,2.20
2017-08-04T05:52:54.080Z,2.17
2017-08-04T05:55:21.566Z,2.13
2017-08-04T05:57:49.922Z,2.17
2017-08-04T06:00:17.390Z,2.30
2017-08-04T06:02:44.873Z,2.70
2017-08-04T06:05:13.093Z,1.87
2017-08-04T06:07:40.662Z,3.00
2017-08-04T06:10:08.157Z,1.93
2017-08-04T06:12:35.620Z,2.17
2017-08-04T06:15:03.881Z,3.00
2017-08-04T06:17:31.368Z,2.03
2017-08-04T06:19:59.605Z,2.57
2017-08-04T06:22:27.074Z,2.43
2017-08-04T06:24:55.309Z,2.47
2017-08-04T06:27:22.781Z,2.20
2017-08-04T06:29:51.151Z,3.60
2017-08-04T06:32:18.634Z,2.30
2017-08-04T06:34:46.089Z,2.20
2017-08-04T06:37:13.568Z,2.40
2017-08-04T06:39:41.985Z,2.50
2017-08-04T06:42:09.456Z,2.90
2017-08-04T06:44:36.934Z,3.13
2017-08-04T06:47:04.400Z,2.20
2017-08-04T06:49:43.851Z,2.20
2017-08-04T06:52:24.096Z,3.20
2017-08-04T06:55:03.552Z,1.97
2017-08-04T06:57:31.893Z,2.60
2017-08-04T06:59:59.376Z,2.30
2017-08-04T07:02:27.611Z,1.90
2017-08-04T07:04:55.154Z,2.30
2017-08-04T07:07:22.651Z,2.00
2017-08-04T07:09:50.142Z,1.80
2017-08-04T07:12:17.607Z,1.93
2017-08-04T07:14:45.081Z,3.30
2017-08-04T07:17:12.568Z,2.30
2017-08-04T07:19:40.045Z,2.37
2017-08-04T07:22:08.286Z,2.57
2017-08-04T07:24:35.771Z,2.53
2017-08-04T07:27:03.250Z,2.73
2017-08-04T07:29:31.497Z,2.43
2017-08-04T07:31:58.977Z,2.50
2017-08-04T07:34:27.208Z,2.27
2017-08-04T07:36:54.691Z,2.70
2017-08-04T07:39:22.929Z,2.30
2017-08-04T07:41:50.378Z,2.07
2017-08-04T07:44:18.021Z,1.93
2017-08-04T07:46:45.602Z,2.20
2017-08-04T07:49:13.086Z,2.37
2017-08-04T07:51:40.621Z,1.90
2017-08-04T07:54:08.089Z,2.40
2017-08-04T07:56:35.665Z,1.93
2017-08-04T07:59:03.121Z,2.03
2017-08-04T08:01:30.589Z,2.40
2017-08-04T08:03:58.077Z,1.87
2017-08-04T08:06:25.558Z,1.43
2017-08-04T08:08:53.037Z,1.87
2017-08-04T08:11:20.528Z,2.30
2017-08-04T08:13:48.766Z,1.83
2017-08-04T08:16:16.241Z,2.10
2017-08-04T08:18:43.718Z,1.53
2017-08-04T08:21:11.956Z,1.77
2017-08-04T08:23:39.435Z,1.67
2017-08-04T08:26:06.906Z,1.80
2017-08-04T08:28:35.126Z,1.97
2017-08-04T08:31:02.603Z,1.77
2017-08-04T08:33:30.458Z,1.80
2017-08-04T08:35:57.995Z,2.07
2017-08-04T08:38:25.560Z,2.10
2017-08-04T08:40:53.017Z,1.43
2017-08-04T08:43:20.641Z,2.07
2017-08-04T08:45:48.901Z,2.00
2017-08-04T08:48:17.130Z,1.50
2017-08-04T08:50:44.620Z,1.70
2017-08-04T08:53:12.076Z,1.47
2017-08-04T08:55:39.563Z,1.60
2017-08-04T08:58:07.833Z,1.80
2017-08-04T09:00:36.190Z,1.17
2017-08-04T09:03:03.667Z,1.40
2017-08-04T09:05:32.015Z,1.10
2017-08-04T09:07:59.489Z,1.43
2017-08-04T09:10:26.946Z,1.73
2017-08-04T09:12:55.221Z,1.93
2017-08-04T09:15:22.724Z,1.90
2017-08-04T09:17:50.364Z,2.10
2017-08-04T09:20:17.838Z,1.43
2017-08-04T09:22:45.347Z,1.53
2017-08-04T09:25:12.806Z,1.60
2017-08-04T09:27:41.190Z,1.77
2017-08-04T09:30:08.958Z,1.33
2017-08-04T09:32:36.425Z,1.60
2017-08-04T09:35:04.678Z,1.53
2017-08-04T09:37:32.341Z,1.70
2017-08-04T09:39:59.817Z,1.40
2017-08-04T09:42:28.082Z,1.53
2017-08-04T09:44:56.338Z,1.67
2017-08-04T09:47:23.797Z,1.83
2017-08-04T09:49:51.307Z,1.90
2017-08-04T09:52:18.770Z,1.93
2017-08-04T09:54:46.245Z,1.90
2017-08-04T09:57:13.700Z,1.40
2017-08-04T09:59:41.174Z,1.70
2017-08-04T10:02:08.807Z,1.97
2017-08-04T10:04:36.264Z,1.70
2017-08-04T10:07:03.742Z,2.03
2017-08-04T10:09:31.202Z,1.80
2017-08-04T10:11:58.858Z,2.30
2017-08-04T10:14:26.917Z,1.70
2017-08-04T10:16:54.491Z,2.20
2017-08-04T10:19:21.949Z,1.47
2017-08-04T10:21:49.839Z,2.20
2017-08-04T10:24:17.321Z,1.80
2017-08-04T10:26:44.799Z,2.30
2017-08-04T10:29:12.278Z,2.40
2017-08-04T10:31:39.766Z,2.47
2017-08-04T10:34:07.351Z,2.47
2017-08-04T10:36:34.831Z,2.10
2017-08-04T10:39:02.300Z,2.43
2017-08-04T10:41:29.792Z,2.93
2017-08-04T10:43:58.034Z,2.23
2017-08-04T10:46:25.504Z,2.27
2017-08-04T10:48:52.975Z,2.23
2017-08-04T10:51:20.429Z,2.70
2017-08-04T10:53:47.909Z,2.63
2017-08-04T10:56:16.132Z,2.20
2017-08-04T10:58:43.589Z,2.73
2017-08-04T11:01:11.058Z,2.53
2017-08-04T11:03:38.600Z,2.83
2017-08-04T11:06:06.082Z,2.63
2017-08-04T11:08:33.548Z,2.30
2017-08-04T11:11:01.012Z,2.93
2017-08-04T11:13:29.241Z,2.83
2017-08-04T11:15:56.700Z,2.63
2017-08-04T11:18:24.179Z,2.20
2017-08-04T11:20:51.648Z,2.80
2017-08-04T11:23:19.134Z,2.30
2017-08-04T11:25:46.625Z,2.20
2017-08-04T11:28:14.107Z,2.83
2017-08-04T11:30:41.612Z,2.57
2017-08-04T11:33:09.064Z,2.20
2017-08-04T11:35:36.546Z,2.67
2017-08-04T11:38:04.006Z,1.80
2017-08-04T11:40:31.485Z,2.00
2017-08-04T11:42:58.944Z,2.13
2017-08-04T11:45:26.426Z,1.97
2017-08-04T11:47:54.669Z,1.77
2017-08-04T11:50:22.754Z,2.33
2017-08-04T11:52:50.222Z,2.13
2017-08-04T11:55:18.300Z,2.40
2017-08-04T11:57:46.524Z,1.80
2017-08-04T12:00:14.021Z,2.40
2017-08-04T12:02:41.477Z,2.47
2017-08-04T12:05:08.949Z,2.30
2017-08-04T12:07:37.182Z,2.23
2017-08-04T12:10:04.661Z,1.77
2017-08-04T12:12:32.184Z,1.83
2017-08-04T12:14:59.639Z,2.07
2017-08-04T12:17:27.125Z,2.10
2017-08-04T12:19:54.592Z,2.30
2017-08-04T12:22:22.067Z,2.10
2017-08-04T12:24:50.309Z,2.20
2017-08-04T12:27:17.780Z,1.97
2017-08-04T12:29:45.330Z,1.80
2017-08-04T12:32:12.796Z,1.90
2017-08-04T12:34:40.266Z,1.60
2017-08-04T12:37:07.757Z,1.93
2017-08-04T12:39:35.212Z,1.50
2017-08-04T12:42:02.800Z,1.60
2017-08-04T12:44:30.293Z,1.90
2017-08-04T12:46:58.547Z,1.70
2017-08-04T12:49:26.013Z,1.33
2017-08-04T12:51:53.481Z,1.60
2017-08-04T12:54:21.717Z,1.30
2017-08-04T12:56:49.184Z,1.50
2017-08-04T12:59:16.666Z,1.40
2017-08-04T13:01:44.187Z,1.60
2017-08-04T13:04:11.644Z,1.47
2017-08-04T13:06:39.109Z,1.60
2017-08-04T13:09:06.746Z,1.43
2017-08-04T13:11:34.213Z,1.33
2017-08-04T13:14:01.690Z,1.70
2017-08-04T13:16:29.163Z,1.47
2017-08-04T13:18:56.629Z,1.60
2017-08-04T13:21:24.877Z,1.10
2017-08-04T13:23:52.343Z,1.20
2017-08-04T13:26:19.833Z,1.40
2017-08-04T13:28:47.331Z,0.97
2017-08-04T13:31:14.786Z,1.30
2017-08-04T13:33:42.278Z,0.90
2017-08-04T13:36:09.737Z,1.43
2017-08-04T13:38:42.968Z,1.40
2017-08-04T13:41:10.452Z,1.00
2017-08-04T13:43:37.900Z,1.07
2017-08-04T13:46:05.368Z,1.10
2017-08-04T13:48:32.826Z,1.40
2017-08-04T13:51:00.310Z,1.07
2017-08-04T13:53:27.771Z,1.20
2017-08-04T13:55:55.225Z,1.30
2017-08-04T13:58:22.700Z,1.27
2017-08-04T14:00:51.010Z,1.60
2017-08-04T14:03:18.708Z,1.43
2017-08-04T14:05:46.153Z,1.10
2017-08-04T14:08:13.621Z,1.40
2017-08-04T14:10:41.189Z,1.30
2017-08-04T14:13:08.669Z,1.20
2017-08-04T14:15:36.908Z,1.20
2017-08-04T14:18:04.377Z,1.47
2017-08-04T14:20:31.853Z,1.17
2017-08-04T14:23:00.081Z,1.43
2017-08-04T14:25:27.622Z,1.33
2017-08-04T14:27:55.082Z,1.60
2017-08-04T14:30:22.546Z,1.20
2017-08-04T14:32:50.022Z,1.27
2017-08-04T14:35:17.477Z,1.80
2017-08-04T14:37:44.969Z,1.40
2017-08-04T14:40:13.314Z,1.43
2017-08-04T14:42:40.844Z,1.33
2017-08-04T14:45:08.328Z,1.83
2017-08-04T14:47:35.791Z,2.00
2017-08-04T14:50:03.322Z,1.73
2017-08-04T14:52:30.986Z,1.50
2017-08-04T14:54:58.446Z,1.50
2017-08-04T14:57:25.916Z,1.50
2017-08-04T14:59:53.370Z,1.40
2017-08-04T15:02:21.049Z,1.63
2017-08-04T15:04:48.509Z,1.87
2017-08-04T15:07:15.994Z,1.50
2017-08-04T15:09:43.456Z,1.80
2017-08-04T15:12:10.923Z,1.70
2017-08-04T15:14:38.419Z,1.40
2017-08-04T15:17:05.872Z,1.53
2017-08-04T15:19:33.344Z,1.43
2017-08-04T15:22:00.800Z,1.60
2017-08-04T15:24:28.313Z,1.47
2017-08-04T15:26:55.778Z,1.50
2017-08-04T15:29:23.234Z,1.53
2017-08-04T15:31:50.861Z,1.67
2017-08-04T15:34:18.413Z,1.40
2017-08-04T15:36:46.678Z,1.63
2017-08-04T15:39:14.144Z,1.53
2017-08-04T15:41:42.368Z,1.70
2017-08-04T15:44:09.845Z,1.70
2017-08-04T15:46:37.310Z,1.53
2017-08-04T15:49:04.764Z,1.80
2017-08-04T15:51:32.262Z,1.53
2017-08-04T15:53:59.709Z,1.50
2017-08-04T15:56:27.177Z,1.40
2017-08-04T15:58:55.272Z,1.50
2017-08-04T16:01:22.733Z,1.40
2017-08-04T16:03:50.200Z,1.57
2017-08-04T16:06:17.721Z,1.63
2017-08-04T16:08:45.187Z,1.70
2017-08-04T16:11:12.637Z,1.80
2017-08-04T16:13:40.122Z,1.50
2017-08-04T16:16:07.593Z,1.50
2017-08-04T16:18:35.070Z,1.43
2017-08-04T16:21:02.592Z,2.10
2017-08-04T16:23:30.081Z,1.40
2017-08-04T16:25:57.545Z,1.40
2017-08-04T16:28:26.429Z,1.40
2017-08-04T16:30:53.936Z,1.20
2017-08-04T16:33:21.380Z,1.77
2017-08-04T16:35:48.996Z,1.70
2017-08-04T16:38:16.513Z,1.50
2017-08-04T16:40:43.974Z,1.40
2017-08-04T16:43:11.459Z,1.30
2017-08-04T16:45:38.917Z,1.73
2017-08-04T16:48:06.451Z,1.60
2017-08-04T16:50:33.924Z,1.73
2017-08-04T16:53:01.390Z,1.73
2017-08-04T16:55:28.889Z,1.43
2017-08-04T16:57:56.444Z,1.93
2017-08-04T17:00:23.939Z,1.83
2017-08-04T17:02:51.529Z,1.60
2017-08-04T17:05:19.049Z,2.80
2017-08-04T17:07:46.520Z,2.50
2017-08-04T17:10:13.985Z,3.60
2017-08-04T17:12:41.457Z,2.67
2017-08-04T17:15:08.975Z,4.17
2017-08-04T17:17:36.578Z,2.33
2017-08-04T17:20:04.032Z,2.43
2017-08-04T17:22:31.498Z,2.73
2017-08-04T17:24:59.736Z,2.27
2017-08-04T17:27:27.204Z,1.90
2017-08-04T17:29:54.697Z,1.53
2017-08-04T17:32:23.132Z,1.70
2017-08-04T17:34:50.592Z,2.07
2017-08-04T17:37:18.056Z,1.83
2017-08-04T17:39:46.385Z,1.70
2017-08-04T17:42:13.863Z,1.70
2017-08-04T17:44:41.326Z,1.60
2017-08-04T17:47:08.829Z,1.87
2017-08-04T17:49:37.053Z,1.50
2017-08-04T17:52:04.522Z,1.57
2017-08-04T17:54:32.018Z,1.83
2017-08-04T17:57:00.247Z,1.43
2017-08-04T17:59:27.725Z,1.50
2017-08-04T18:01:55.364Z,1.30
2017-08-04T18:04:22.853Z,1.70
2017-08-04T18:06:50.819Z,1.37
2017-08-04T18:09:18.289Z,1.50
2017-08-04T18:11:46.537Z,1.37
2017-08-04T18:14:14.002Z,1.33
2017-08-04T18:16:41.486Z,1.50
2017-08-04T18:19:09.709Z,1.50
2017-08-04T18:21:37.173Z,1.67
2017-08-04T18:24:04.648Z,1.53
2017-08-04T18:26:32.097Z,1.50
2017-08-04T18:28:59.579Z,1.70
2017-08-04T18:31:27.762Z,2.07
2017-08-04T18:33:56.049Z,1.60
2017-08-04T18:36:23.501Z,1.80
2017-08-04T18:38:51.272Z,2.07
2017-08-04T18:41:18.765Z,1.87
2017-08-04T18:43:46.231Z,1.80
2017-08-04T18:46:13.712Z,1.80
2017-08-04T18:48:41.177Z,1.80
2017-08-04T18:51:09.421Z,2.07
2017-08-04T18:53:36.967Z,1.30
2017-08-04T18:56:04.421Z,1.67
2017-08-04T18:58:31.912Z,1.70
2017-08-04T19:00:59.376Z,1.83
2017-08-04T19:03:26.847Z,1.70
2017-08-04T19:05:55.530Z,1.83
2017-08-04T19:08:23.764Z,1.90
2017-08-04T19:10:51.229Z,2.13
2017-08-04T19:13:18.701Z,1.60
2017-08-04T19:15:46.168Z,2.10
2017-08-04T19:18:14.407Z,1.67
2017-08-04T19:20:41.862Z,1.90
2017-08-04T19:23:09.337Z,1.80
2017-08-04T19:25:36.810Z,1.90
2017-08-04T19:28:05.061Z,1.70
2017-08-04T19:30:32.694Z,1.70
2017-08-04T19:33:00.160Z,2.10
2017-08-04T19:35:27.661Z,2.43
2017-08-04T19:37:55.145Z,1.90
2017-08-04T19:40:22.683Z,2.30
2017-08-04T19:42:50.921Z,2.40
2017-08-04T19:45:18.461Z,1.87
2017-08-04T19:47:45.937Z,1.70
2017-08-04T19:50:13.397Z,2.20
2017-08-04T19:52:40.973Z,1.80
2017-08-04T19:55:08.455Z,1.53
2017-08-04T19:57:36.673Z,1.90
2017-08-04T20:00:04.144Z,1.57
2017-08-04T20:02:31.608Z,1.70
2017-08-04T20:04:59.069Z,2.10
2017-08-04T20:07:26.552Z,2.20
2017-08-04T20:09:54.046Z,2.47
2017-08-04T20:12:21.954Z,1.73
2017-08-04T20:14:49.405Z,1.77
2017-08-04T20:17:16.882Z,2.00
2017-08-04T20:19:45.104Z,2.07
2017-08-04T20:22:12.596Z,2.10
2017-08-04T20:24:40.064Z,2.00
2017-08-04T20:27:08.294Z,1.90
2017-08-04T20:29:35.764Z,2.00
2017-08-04T20:32:03.683Z,2.70
2017-08-04T20:34:31.153Z,2.20
2017-08-04T20:36:58.790Z,2.10
2017-08-04T20:39:27.017Z,2.10
2017-08-04T20:41:54.479Z,2.43
2017-08-04T20:44:21.949Z,1.97
2017-08-04T20:46:49.416Z,2.47
2017-08-04T20:49:16.900Z,2.30
2017-08-04T20:51:44.484Z,2.50
2017-08-04T20:54:11.956Z,2.40
2017-08-04T20:56:39.625Z,2.20
2017-08-04T20:59:07.101Z,2.00
2017-08-04T21:01:34.580Z,2.57
2017-08-04T21:04:02.060Z,2.30
2017-08-04T21:06:29.605Z,2.10
2017-08-04T21:08:57.172Z,2.30
2017-08-04T21:11:24.666Z,2.40
2017-08-04T21:13:52.125Z,2.57
2017-08-04T21:16:19.681Z,2.00
2017-08-04T21:18:47.193Z,2.70
2017-08-04T21:21:14.653Z,2.20
2017-08-04T21:23:42.125Z,2.40
2017-08-04T21:26:09.579Z,1.83
2017-08-04T21:28:37.066Z,2.73
2017-08-04T21:31:04.565Z,2.30
2017-08-04T21:33:32.896Z,2.67
2017-08-04T21:36:00.370Z,2.63
2017-08-04T21:38:27.839Z,2.23
2017-08-04T21:43:29.889Z,2.43
2017-08-04T21:45:57.370Z,2.50
2017-08-04T21:48:24.838Z,2.73
2017-08-04T21:50:52.558Z,2.90
2017-08-04T21:53:20.013Z,3.03
2017-08-04T21:55:47.481Z,3.00
2017-08-04T21:58:14.948Z,2.80
2017-08-04T22:00:42.592Z,2.67
2017-08-04T22:03:10.088Z,2.63
2017-08-04T22:05:37.551Z,2.30
2017-08-04T22:08:05.799Z,2.70
2017-08-04T22:10:33.276Z,2.60
2017-08-04T22:13:00.890Z,2.53
2017-08-04T22:15:28.351Z,2.80
2017-08-04T22:20:29.793Z,2.50
2017-08-04T22:22:57.276Z,3.10
2017-08-04T22:25:24.733Z,2.50
2017-08-04T22:27:52.185Z,2.33
2017-08-04T22:30:19.680Z,2.77
2017-08-04T22:32:47.149Z,2.37
2017-08-04T22:35:15.378Z,2.90
2017-08-04T22:37:42.869Z,2.80
2017-08-04T22:40:10.324Z,2.20
2017-08-04T22:42:37.785Z,2.70
2017-08-04T22:45:05.252Z,2.20
2017-08-04T22:47:33.474Z,2.47
2017-08-04T22:50:01.809Z,2.70
2017-08-04T22:52:30.104Z,2.00
2017-08-04T22:54:57.564Z,2.23
2017-08-04T22:57:25.153Z,4.00
2017-08-04T22:59:52.661Z,2.50
2017-08-04T23:02:20.896Z,1.97
2017-08-04T23:04:48.530Z,2.10
2017-08-04T23:07:16.052Z,2.83
2017-08-04T23:09:44.294Z,2.50
2017-08-04T23:12:11.751Z,2.50
2017-08-04T23:14:39.244Z,2.27
2017-08-04T23:17:07.599Z,2.77
2017-08-04T23:19:35.062Z,2.40
2017-08-04T23:22:02.520Z,2.93
2017-08-04T23:24:30.843Z,2.73
2017-08-04T23:26:58.307Z,2.10
2017-08-04T23:29:25.897Z,2.30
2017-08-04T23:31:53.374Z,2.77
2017-08-04T23:34:21.609Z,3.17
2017-08-04T23:36:49.193Z,2.30
2017-08-04T23:39:16.668Z,2.63
2017-08-04T23:41:44.916Z,2.33
2017-08-04T23:44:12.407Z,2.43
2017-08-04T23:46:40.636Z,2.93
2017-08-04T23:49:08.122Z,2.40
2017-08-04T23:51:35.627Z,2.60
2017-08-04T23:54:03.073Z,2.53
2017-08-04T23:56:30.792Z,3.57
2017-08-04T23:58:58.273Z,2.33
